KD6VLN-14 Weather Reports


Display with metric or nautical units.
time (UTC)temp
F
wind
direction
speed
MPH
gust
MPH
rain 1hr
in
rain 24hr
in
rain mn
in
humidity
%
barometer
mb
20240523180420 83 304 1.0 8.0 0.00 0.00 0.00 11
20240523175920 84 266 2.0 11.0 0.00 0.00 0.00 11
20240523174920 84 322 0.0 8.0 0.00 0.00 0.00 11
20240523174421 83 266 1.0 8.0 0.00 0.00 0.00 11
20240523173920 83 261 2.0 12.0 0.00 0.00 0.00 11
20240523172924 83 252 3.0 10.0 0.00 0.00 0.00 11
20240523172424 83 258 6.0 12.0 0.00 0.00 0.00 11
20240523171935 83 272 3.0 12.0 0.00 0.00 0.00 11
20240523171427 83 245 5.0 11.0 0.00 0.00 0.00 11
20240523165920 83 257 3.0 8.0 0.00 0.00 0.00 11
20240523165425 83 255 3.0 8.0 0.00 0.00 0.00 11
20240523164431 83 219 3.0 8.0 0.00 0.00 0.00 11
20240523163920 82 230 4.0 8.0 0.00 0.00 0.00 11
20240523163419 82 248 3.0 8.0 0.00 0.00 0.00 11
20240523162932 81 252 2.0 7.0 0.00 0.00 0.00 11
20240523162424 81 238 1.0 5.0 0.00 0.00 0.00 11
20240523161920 81 230 2.0 5.0 0.00 0.00 0.00 11
20240523161420 81 252 1.0 5.0 0.00 0.00 0.00 11
20240523160920 79 359 0.0 4.0 0.00 0.00 0.00 10
20240523160420 79 3 0.0 4.0 0.00 0.00 0.00 10
20240523155923 79 303 0.0 6.0 0.00 0.00 0.00 11
20240523155429 78 34 1.0 6.0 0.00 0.00 0.00 10
20240523154920 78 5 0.0 6.0 0.00 0.00 0.00 10
20240523154420 78 269 1.0 6.0 0.00 0.00 0.00 10
20240523153920 78 358 0.0 5.0 0.00 0.00 0.00 10
20240523152430 77 278 0.0 1.0 0.00 0.00 0.00 10
20240523151923 77 289 0.0 1.0 0.00 0.00 0.00 10
20240523150924 77 324 0.0 0.0 0.00 0.00 0.00 9
20240523150420 77 347 0.0 2.0 0.00 0.00 0.00 9
20240523145920 77 310 0.0 2.0 0.00 0.00 0.00 9
20240523145431 79 20 0.0 2.0 0.00 0.00 0.00 8
20240523144920 81 27 0.0 2.0 0.00 0.00 0.00 6
20240523144435 92 310 0.0 0.0 0.00 0.00 0.00 5
20240523143920 103 17 0.0 0.0 0.00 0.00 0.00 5
20240523143423 111 38 0.0 0.0 0.00 0.00 0.00 5
20240523142920 111 21 0.0 0.0 0.00 0.00 0.00 5
20240523141927 119 169 0.0 0.0 0.00 0.00 0.00 6
20240523140421 113 134 0.0 0.0 0.00 0.00 0.00 6
20240523134940 108 135 0.0 0.0 0.00 0.00 0.00 7
20240523134426 104 124 0.0 0.0 0.00 0.00 0.00 7
20240523125924 72 114 0.0 0.0 0.00 0.00 0.00 15
20240523123920 59 104 0.0 0.0 0.00 0.00 0.00 17
20240523123433 58 90 0.0 0.0 0.00 0.00 0.00 16
20240523122920 57 98 0.0 0.0 0.00 0.00 0.00 17
20240523122449 57 94 0.0 0.0 0.00 0.00 0.00 17
20240523120441 57 100 0.0 0.0 0.00 0.00 0.00 17
20240523115944 57 90 0.0 0.0 0.00 0.00 0.00 17
20240523115432 57 88 0.0 0.0 0.00 0.00 0.00 17
20240523114920 57 94 0.0 0.0 0.00 0.00 0.00 18
20240523113920 56 111 0.0 0.0 0.00 0.00 0.00 18
20240523113439 56 104 0.0 0.0 0.00 0.00 0.00 18
20240523112920 56 91 0.0 0.0 0.00 0.00 0.00 18
20240523112425 56 87 0.0 0.0 0.00 0.00 0.00 18
20240523111920 56 91 0.0 0.0 0.00 0.00 0.00 18
20240523111502 56 93 0.0 0.0 0.00 0.00 0.00 18
20240523111420 56 93 0.0 0.0 0.00 0.00 0.00 18
20240523110920 56 91 0.0 0.0 0.00 0.00 0.00 18
20240523110420 57 88 0.0 0.0 0.00 0.00 0.00 18
20240523105920 57 254 0.0 0.0 0.00 0.00 0.00 18
20240523105420 57 92 0.0 0.0 0.00 0.00 0.00 18
20240523104920 56 115 0.0 0.0 0.00 0.00 0.00 18
20240523104420 56 112 0.0 0.0 0.00 0.00 0.00 18
20240523103920 57 94 0.0 0.0 0.00 0.00 0.00 18
20240523103420 57 86 0.0 0.0 0.00 0.00 0.00 18
20240523102920 57 81 0.0 0.0 0.00 0.00 0.00 18
20240523102503 58 86 0.0 0.0 0.00 0.00 0.00 18
20240523102420 58 86 0.0 0.0 0.00 0.00 0.00 18
20240523101939 58 93 0.0 0.0 0.00 0.00 0.00 18
20240523101420 58 91 0.0 0.0 0.00 0.00 0.00 18
20240523100420 58 84 0.0 0.0 0.00 0.00 0.00 18
20240523095920 58 75 0.0 0.0 0.00 0.00 0.00 18
20240523095433 57 122 0.0 0.0 0.00 0.00 0.00 18
20240523094920 58 133 0.0 0.0 0.00 0.00 0.00 18
20240523094508 59 118 0.0 0.0 0.00 0.00 0.00 17
20240523094420 59 118 0.0 0.0 0.00 0.00 0.00 17
20240523093420 60 319 0.0 0.0 0.00 0.00 0.00 17
20240523092943 59 354 0.0 0.0 0.00 0.00 0.00 17
20240523092508 59 223 0.0 0.0 0.00 0.00 0.00 17
20240523092421 59 223 0.0 0.0 0.00 0.00 0.00 17
20240523091920 58 211 0.0 0.0 0.00 0.00 0.00 18
20240523091420 59 211 0.0 0.0 0.00 0.00 0.00 17
20240523090954 60 226 0.0 0.0 0.00 0.00 0.00 17
20240523090420 61 254 0.0 0.0 0.00 0.00 0.00 17
20240523090008 61 347 0.0 0.0 0.00 0.00 0.00 16
20240523085920 61 347 0.0 0.0 0.00 0.00 0.00 16
20240523085420 60 331 0.0 0.0 0.00 0.00 0.00 16
20240523084920 59 354 0.0 0.0 0.00 0.00 0.00 16
20240523084511 59 198 0.0 0.0 0.00 0.00 0.00 17
20240523083954 60 199 0.0 0.0 0.00 0.00 0.00 17
20240523083920 60 199 0.0 0.0 0.00 0.00 0.00 17
20240523083431 60 190 0.0 0.0 0.00 0.00 0.00 17
20240523083008 60 199 0.0 0.0 0.00 0.00 0.00 17
20240523082920 60 199 0.0 0.0 0.00 0.00 0.00 17
20240523082420 59 205 0.0 0.0 0.00 0.00 0.00 17
20240523081952 60 205 0.0 0.0 0.00 0.00 0.00 17
20240523081458 60 198 0.0 0.0 0.00 0.00 0.00 17
20240523080920 61 191 0.0 0.0 0.00 0.00 0.00 17
20240523080434 60 187 0.0 0.0 0.00 0.00 0.00 17
20240523075955 61 180 0.0 0.0 0.00 0.00 0.00 17
20240523075920 61 180 0.0 0.0 0.00 0.00 0.00 17
20240523075433 61 192 0.0 0.0 0.00 0.00 0.00 18
20240523074920 61 190 0.0 5.0 0.00 0.00 0.00 18
20240523074437 61 195 1.0 5.0 0.00 0.00 0.00 18
20240523073920 62 186 2.0 5.0 0.00 0.00 0.00 18
20240523073434 62 194 0.0 5.0 0.00 0.00 0.00 17
20240523072920 63 193 1.0 5.0 0.00 0.00 0.00 18
20240523072434 63 192 1.0 5.0 0.00 0.00 0.00 18
20240523071920 63 196 0.0 5.0 0.00 0.00 0.00 18
20240523071420 63 196 0.0 2.0 0.00 0.00 0.00 18
20240523070920 63 187 0.0 2.0 0.00 0.00 0.00 18
20240523065920 63 190 0.0 0.0 0.00 0.00 0.00 18
20240523065431 64 185 0.0 2.0 0.00 0.00 0.00 18
20240523064937 64 192 0.0 2.0 0.00 0.00 0.00 18
20240523064420 64 198 0.0 5.0 0.00 0.00 0.00 18
20240523063920 65 194 0.0 5.0 0.00 0.00 0.00 18
20240523063420 65 199 1.0 5.0 0.00 0.00 0.00 18
20240523062920 65 192 1.0 5.0 0.00 0.00 0.00 17
20240523061933 65 198 1.0 5.0 0.00 0.00 0.00 17
20240523061433 66 209 1.0 6.0 0.00 0.00 0.00 17
20240523060920 65 193 1.0 6.0 0.00 0.00 0.00 17
20240523060420 65 194 1.0 5.0 0.00 0.00 0.00 17
20240523055920 64 193 0.0 3.0 0.00 0.00 0.00 16
20240523055420 65 199 0.0 3.0 0.00 0.00 0.00 16
20240523054920 65 189 0.0 0.0 0.00 0.00 0.00 16
20240523054420 65 188 0.0 0.0 0.00 0.00 0.00 16
20240523053920 65 180 0.0 0.0 0.00 0.00 0.00 15
20240523053420 65 179 0.0 0.0 0.00 0.00 0.00 15
20240523052920 65 187 0.0 0.0 0.00 0.00 0.00 15
20240523052420 66 190 0.0 0.0 0.00 0.00 0.00 15
20240523051920 66 186 0.0 0.0 0.00 0.00 0.00 15
20240523051432 66 187 0.0 0.0 0.00 0.00 0.00 15
20240523050920 67 202 0.0 2.0 0.00 0.00 0.00 15
20240523050420 67 200 0.0 2.0 0.00 0.00 0.00 15
20240523045932 67 212 0.0 0.0 0.00 0.00 0.00 15
20240523045421 68 222 0.0 0.0 0.00 0.00 0.00 14
20240523044920 68 237 0.0 0.0 0.00 0.00 0.00 14
20240523044424 68 270 0.0 0.0 0.00 0.00 0.00 14
20240523043954 69 215 0.0 3.0 0.00 0.00 0.00 14
20240523043920 69 215 0.0 3.0 0.00 0.00 0.00 14
20240523042920 69 192 0.0 3.0 0.00 0.00 0.00 14
20240523042422 70 217 0.0 2.0 0.00 0.00 0.00 14
20240523041920 71 226 0.0 4.0 0.00 0.00 0.00 14
20240523041421 72 226 1.0 4.0 0.00 0.00 0.00 14
20240523040920 72 225 0.0 4.0 0.00 0.00 0.00 14
20240523040426 72 226 0.0 5.0 0.00 0.00 0.00 13
20240523035420 74 229 2.0 5.0 0.00 0.00 0.00 13
20240523034920 74 228 2.0 5.0 0.00 0.00 0.00 13
20240523034428 74 231 2.0 5.0 0.00 0.00 0.00 13
20240523033920 74 227 3.0 6.0 0.00 0.00 0.00 12
20240523033429 74 231 4.0 7.0 0.00 0.00 0.00 13
20240523032920 75 230 4.0 7.0 0.00 0.00 0.00 12
20240523032420 75 226 4.0 6.0 0.00 0.00 0.00 12
20240523031920 75 237 2.0 7.0 0.00 0.00 0.00 12
20240523031421 76 231 4.0 8.0 0.00 0.00 0.00 12
20240523030920 76 226 5.0 8.0 0.00 0.00 0.00 12
20240523030420 77 223 5.0 8.0 0.00 0.00 0.00 12
20240523025920 77 220 5.0 9.0 0.00 0.00 0.00 12
20240523025434 77 214 5.0 9.0 0.00 0.00 0.00 11
20240523024434 78 222 6.0 9.0 0.00 0.00 0.00 11
20240523023920 79 220 6.0 12.0 0.00 0.00 0.00 11
20240523023420 80 221 6.0 12.0 0.00 0.00 0.00 11
20240523022920 81 221 5.0 8.0 0.00 0.00 0.00 11
20240523022434 81 225 5.0 11.0 0.00 0.00 0.00 11
20240523021920 82 226 6.0 13.0 0.00 0.00 0.00 11
20240523021448 83 225 8.0 14.0 0.00 0.00 0.00 10
20240523020920 83 228 8.0 14.0 0.00 0.00 0.00 10
20240523020421 84 226 7.0 14.0 0.00 0.00 0.00 10
20240523015920 85 227 8.0 13.0 0.00 0.00 0.00 10
20240523015420 87 234 8.0 12.0 0.00 0.00 0.00 10
20240523014920 88 235 7.0 12.0 0.00 0.00 0.00 9
20240523014421 91 234 7.0 10.0 0.00 0.00 0.00 9
20240523013954 92 237 5.0 10.0 0.00 0.00 0.00 9
20240523013920 92 237 5.0 10.0 0.00 0.00 0.00 9
20240523013436 93 246 6.0 12.0 0.00 0.00 0.00 9
20240523012932 95 233 8.0 13.0 0.00 0.00 0.00 8
20240523012453 97 233 9.0 13.0 0.00 0.00 0.00 8
20240523011920 99 226 7.0 13.0 0.00 0.00 0.00 8
20240523011426 98 228 9.0 13.0 0.00 0.00 0.00 8
20240523010920 97 252 5.0 11.0 0.00 0.00 0.00 9
20240523010433 96 256 4.0 11.0 0.00 0.00 0.00 9
20240523005920 96 260 6.0 13.0 0.00 0.00 0.00 8
20240523005420 95 254 7.0 14.0 0.00 0.00 0.00 8
20240523003920 98 238 4.0 10.0 0.00 0.00 0.00 8
20240523003420 100 254 5.0 12.0 0.00 0.00 0.00 8
20240523002920 101 236 5.0 12.0 0.00 0.00 0.00 8
20240523002420 101 231 7.0 15.0 0.00 0.00 0.00 8
20240523001920 99 237 9.0 15.0 0.00 0.00 0.00 9
20240523001420 100 248 4.0 12.0 0.00 0.00 0.00 9
20240523000920 99 250 6.0 14.0 0.00 0.00 0.00 9
20240523000420 98 245 7.0 14.0 0.00 0.00 0.00 9
20240522235921 97 253 6.0 13.0 0.00 0.00 0.00 10
20240522235421 95 254 8.0 13.0 0.00 0.00 0.00 10
20240522234427 91 270 8.0 15.0 0.00 0.00 0.00 10
20240522233920 91 260 4.0 14.0 0.00 0.00 0.00 10
20240522233436 91 262 9.0 14.0 0.00 0.00 0.00 10
20240522232920 92 248 9.0 14.0 0.00 0.00 0.00 10
20240522232421 92 258 5.0 12.0 0.00 0.00 0.00 10
20240522231921 92 248 8.0 12.0 0.00 0.00 0.00 9
20240522231422 92 244 6.0 14.0 0.00 0.00 0.00 9
20240522230922 92 260 7.0 14.0 0.00 0.00 0.00 9
20240522230432 92 240 5.0 12.0 0.00 0.00 0.00 10
20240522225920 92 301 2.0 12.0 0.00 0.00 0.00 10
20240522224920 91 282 3.0 10.0 0.00 0.00 0.00 10
20240522224459 91 297 3.0 12.0 0.00 0.00 0.00 10
20240522223920 91 285 4.0 12.0 0.00 0.00 0.00 10
20240522223430 92 254 1.0 10.0 0.00 0.00 0.00 10
20240522222421 91 261 3.0 12.0 0.00 0.00 0.00 10
20240522221920 91 270 4.0 10.0 0.00 0.00 0.00 10
20240522221428 92 253 6.0 13.0 0.00 0.00 0.00 10
20240522220920 91 258 6.0 13.0 0.00 0.00 0.00 10
20240522220421 91 301 2.0 15.0 0.00 0.00 0.00 10
20240522215920 92 281 5.0 15.0 0.00 0.00 0.00 10
20240522214931 91 261 8.0 14.0 0.00 0.00 0.00 11
20240522214436 91 268 2.0 12.0 0.00 0.00 0.00 11
20240522213920 90 267 7.0 13.0 0.00 0.00 0.00 11
20240522213432 91 263 7.0 13.0 0.00 0.00 0.00 11
20240522212925 91 256 5.0 13.0 0.00 0.00 0.00 11
20240522211951 93 227 2.0 12.0 0.00 0.00 0.00 11
20240522210433 89 274 3.0 12.0 0.00 0.00 0.00 11
20240522205920 90 276 5.0 11.0 0.00 0.00 0.00 11
20240522205428 90 269 4.0 10.0 0.00 0.00 0.00 11
20240522204920 89 257 4.0 10.0 0.00 0.00 0.00 11
20240522204430 88 34 3.0 9.0 0.00 0.00 0.00 11
20240522203922 88 9 2.0 9.0 0.00 0.00 0.00 11
20240522202920 88 287 2.0 11.0 0.00 0.00 0.00 11
20240522202421 87 300 3.0 11.0 0.00 0.00 0.00 11
20240522201920 87 284 4.0 13.0 0.00 0.00 0.00 11
20240522201435 88 312 4.0 13.0 0.00 0.00 0.00 11
20240522200950 86 14 1.0 10.0 0.00 0.00 0.00 11
20240522195920 88 285 3.0 6.0 0.00 0.00 0.00 11
20240522194425 87 312 3.0 8.0 0.00 0.00 0.00 11
20240522193923 86 303 3.0 9.0 0.00 0.00 0.00 11
20240522193424 87 270 5.0 9.0 0.00 0.00 0.00 11
20240522192934 88 274 3.0 8.0 0.00 0.00 0.00 12
20240522191928 86 321 0.0 6.0 0.00 0.00 0.00 12
20240522190923 87 355 1.0 12.0 0.00 0.00 0.00 12
20240522190423 87 265 4.0 12.0 0.00 0.00 0.00 12
20240522185929 87 239 5.0 12.0 0.00 0.00 0.00 13
20240522184928 87 263 1.0 14.0 0.00 0.00 0.00 13
20240522183920 87 1 0.0 8.0 0.00 0.00 0.00 13
20240522183420 88 221 3.0 9.0 0.00 0.00 0.00 13
20240522182420 85 254 2.0 10.0 0.00 0.00 0.00 14
20240522181926 85 256 5.0 10.0 0.00 0.00 0.00 14